createdAt,value
2017-06-26T00:00:05.261Z,16.95
2017-06-26T00:00:24.560Z,17.13
2017-06-26T00:00:43.844Z,16.95
2017-06-26T00:01:02.626Z,17
2017-06-26T00:01:21.931Z,17.08
2017-06-26T00:01:41.233Z,17.03
2017-06-26T00:02:00.533Z,16.95
2017-06-26T00:02:19.831Z,16.96
2017-06-26T00:02:39.121Z,17
2017-06-26T00:02:57.896Z,16.93
2017-06-26T00:03:16.704Z,16.95
2017-06-26T00:03:35.476Z,16.92
2017-06-26T00:03:54.769Z,17.03
2017-06-26T00:04:13.575Z,16.98
2017-06-26T00:04:32.896Z,17.03
2017-06-26T00:04:52.192Z,16.93
2017-06-26T00:05:10.973Z,16.98
2017-06-26T00:05:29.775Z,17
2017-06-26T00:05:49.087Z,17.07
2017-06-26T00:06:08.396Z,17.02
2017-06-26T00:06:27.699Z,17.07
2017-06-26T00:06:47.037Z,17.1
2017-06-26T00:07:06.377Z,17
2017-06-26T00:07:25.150Z,17.1
2017-06-26T00:07:44.455Z,17.11
2017-06-26T00:08:03.775Z,17.08
2017-06-26T00:08:23.066Z,17.07
2017-06-26T00:08:42.388Z,17.02
2017-06-26T00:09:00.670Z,17
2017-06-26T00:09:19.450Z,17.17
2017-06-26T00:09:38.760Z,17.13
2017-06-26T00:09:57.543Z,17.18
2017-06-26T00:10:16.335Z,17.23
2017-06-26T00:10:35.126Z,17.07
2017-06-26T00:10:54.439Z,17.14
2017-06-26T00:11:13.735Z,17.14
2017-06-26T00:11:33.035Z,17.13
2017-06-26T00:11:52.351Z,17.14
2017-06-26T00:12:11.644Z,17.18
2017-06-26T00:12:30.971Z,17.26
2017-06-26T00:12:49.750Z,17.23
2017-06-26T00:13:08.544Z,17.21
2017-06-26T00:13:27.338Z,17.35
2017-06-26T00:13:46.645Z,17.28
2017-06-26T00:14:05.937Z,17.29
2017-06-26T00:14:25.242Z,17.43
2017-06-26T00:14:44.021Z,17.36
2017-06-26T00:15:03.297Z,17.43
2017-06-26T00:15:22.094Z,17.44
2017-06-26T00:15:41.055Z,17.26
2017-06-26T00:16:00.389Z,17.32
2017-06-26T00:16:19.692Z,17.38
2017-06-26T00:16:38.465Z,17.38
2017-06-26T00:16:57.778Z,17.36
2017-06-26T00:17:16.590Z,17.33
2017-06-26T00:17:35.360Z,17.38
2017-06-26T00:17:54.697Z,17.39
2017-06-26T00:18:13.491Z,17.44
2017-06-26T00:18:32.800Z,17.44
2017-06-26T00:18:52.089Z,17.44
2017-06-26T00:19:11.376Z,17.38
2017-06-26T00:19:30.161Z,17.35
2017-06-26T00:19:49.484Z,17.4
2017-06-26T00:20:08.792Z,17.35
2017-06-26T00:20:28.085Z,17.39
2017-06-26T00:20:47.398Z,17.33
2017-06-26T00:21:06.713Z,17.35
2017-06-26T00:21:24.979Z,17.35
2017-06-26T00:21:43.764Z,17.43
2017-06-26T00:22:03.061Z,17.47
2017-06-26T00:22:22.343Z,17.38
2017-06-26T00:22:41.626Z,17.51
2017-06-26T00:23:00.912Z,17.33
2017-06-26T00:23:20.215Z,17.43
2017-06-26T00:23:39.506Z,17.38
2017-06-26T00:23:58.807Z,17.5
2017-06-26T00:24:17.569Z,17.48
2017-06-26T00:24:36.882Z,17.48
2017-06-26T00:24:56.160Z,17.54
2017-06-26T00:25:15.462Z,17.53
2017-06-26T00:25:34.251Z,17.44
2017-06-26T00:25:53.597Z,17.47
2017-06-26T00:26:12.403Z,17.4
2017-06-26T00:26:31.734Z,17.46
2017-06-26T00:26:51.023Z,17.44
2017-06-26T00:27:10.328Z,17.46
2017-06-26T00:27:29.621Z,17.38
2017-06-26T00:27:48.927Z,17.43
2017-06-26T00:28:08.222Z,17.44
2017-06-26T00:28:26.999Z,17.48
2017-06-26T00:28:46.286Z,17.35
2017-06-26T00:29:05.598Z,17.5
2017-06-26T00:29:24.935Z,17.5
2017-06-26T00:29:44.249Z,17.55
2017-06-26T00:30:03.013Z,17.53
2017-06-26T00:30:21.913Z,17.55
2017-06-26T00:30:41.350Z,17.47
2017-06-26T00:31:00.643Z,17.53
2017-06-26T00:31:19.947Z,17.46
2017-06-26T00:31:39.252Z,17.53
2017-06-26T00:31:58.039Z,17.64
2017-06-26T00:32:17.350Z,17.55
2017-06-26T00:32:36.665Z,17.58
2017-06-26T00:32:55.981Z,17.53
2017-06-26T00:33:15.274Z,17.46
2017-06-26T00:33:34.546Z,17.46
2017-06-26T00:33:53.315Z,17.39
2017-06-26T00:34:12.587Z,17.43
2017-06-26T00:34:31.877Z,17.28
2017-06-26T00:34:51.165Z,17.17
2017-06-26T00:35:10.445Z,17.25
2017-06-26T00:35:29.735Z,17.21
2017-06-26T00:35:49.050Z,17.21
2017-06-26T00:36:08.327Z,17.23
2017-06-26T00:36:27.651Z,17.28
2017-06-26T00:36:46.990Z,17.36
2017-06-26T00:37:05.781Z,17.38
2017-06-26T00:37:25.104Z,17.33
2017-06-26T00:37:44.438Z,17.26
2017-06-26T00:38:03.226Z,17.32
2017-06-26T00:38:22.524Z,17.3
2017-06-26T00:38:41.822Z,17.43
2017-06-26T00:39:01.136Z,17.38
2017-06-26T00:39:19.911Z,17.3
2017-06-26T00:39:39.215Z,17.4
2017-06-26T00:39:57.993Z,17.4
2017-06-26T00:40:16.769Z,17.29
2017-06-26T00:40:36.054Z,17.32
2017-06-26T00:40:55.356Z,17.4
2017-06-26T00:41:14.671Z,17.36
2017-06-26T00:41:33.969Z,17.47
2017-06-26T00:41:53.257Z,17.46
2017-06-26T00:42:12.538Z,17.43
2017-06-26T00:42:31.326Z,17.53
2017-06-26T00:42:50.112Z,17.46
2017-06-26T00:43:09.421Z,17.36
2017-06-26T00:43:28.212Z,17.51
2017-06-26T00:43:47.501Z,17.5
2017-06-26T00:44:06.780Z,17.53
2017-06-26T00:44:25.564Z,17.54
2017-06-26T00:44:44.871Z,17.6
2017-06-26T00:45:04.173Z,17.54
2017-06-26T00:45:23.519Z,17.58
2017-06-26T00:45:42.807Z,17.58
2017-06-26T00:46:02.115Z,17.53
2017-06-26T00:46:21.434Z,17.6
2017-06-26T00:46:40.729Z,17.64
2017-06-26T00:47:00.056Z,17.6
2017-06-26T00:47:18.847Z,17.58
2017-06-26T00:47:38.162Z,17.57
2017-06-26T00:47:56.939Z,17.64
2017-06-26T00:48:15.759Z,17.54
2017-06-26T00:48:35.050Z,17.47
2017-06-26T00:48:53.830Z,17.33
2017-06-26T00:49:12.600Z,17.32
2017-06-26T00:49:31.896Z,17.29
2017-06-26T00:49:51.176Z,17.25
2017-06-26T00:50:10.462Z,17.29
2017-06-26T00:50:29.740Z,17.3
2017-06-26T00:50:49.051Z,17.33
2017-06-26T00:51:08.382Z,17.2
2017-06-26T00:51:27.709Z,17.3
2017-06-26T00:51:46.994Z,17.29
2017-06-26T00:52:06.308Z,17.25
2017-06-26T00:52:25.138Z,17.17
2017-06-26T00:52:44.447Z,17.23
2017-06-26T00:53:03.754Z,17.21
2017-06-26T00:53:23.046Z,17.21
2017-06-26T00:53:41.829Z,17.26
2017-06-26T00:54:00.638Z,17.23
2017-06-26T00:54:19.942Z,17.18
2017-06-26T00:54:39.243Z,17.21
2017-06-26T00:54:58.535Z,17.13
2017-06-26T00:55:17.853Z,17.23
2017-06-26T00:55:37.153Z,17.25
2017-06-26T00:55:56.456Z,17.28
2017-06-26T00:56:15.765Z,17.18
2017-06-26T00:56:35.093Z,17.1
2017-06-26T00:56:54.389Z,17.18
2017-06-26T00:57:13.690Z,17.11
2017-06-26T00:57:32.987Z,17.2
2017-06-26T00:57:51.761Z,17.13
2017-06-26T00:58:11.061Z,17.28
2017-06-26T00:58:30.355Z,17
2017-06-26T00:58:49.675Z,17.15
2017-06-26T00:59:08.972Z,17.18
2017-06-26T00:59:28.262Z,17.21
2017-06-26T00:59:47.571Z,17.13
2017-06-26T01:00:06.353Z,17.13
2017-06-26T01:00:25.628Z,17.25
2017-06-26T01:00:44.914Z,17.2
2017-06-26T01:01:04.213Z,17.14
2017-06-26T01:01:23.520Z,17.13
2017-06-26T01:01:42.821Z,17.17
2017-06-26T01:02:02.157Z,17.2
2017-06-26T01:02:21.458Z,17.08
2017-06-26T01:02:40.263Z,17.14
2017-06-26T01:02:59.573Z,17.2
2017-06-26T01:03:18.881Z,17.26
2017-06-26T01:03:38.182Z,17.25
2017-06-26T01:03:57.466Z,17.18
2017-06-26T01:04:16.764Z,17.29
2017-06-26T01:04:35.549Z,17.36
2017-06-26T01:04:54.862Z,17.29
2017-06-26T01:05:14.152Z,17.25
2017-06-26T01:05:33.452Z,17.4
2017-06-26T01:05:52.759Z,17.35
2017-06-26T01:06:12.050Z,17.36
2017-06-26T01:06:31.358Z,17.36
2017-06-26T01:06:50.665Z,17.38
2017-06-26T01:07:09.448Z,17.36
2017-06-26T01:07:28.730Z,17.38
2017-06-26T01:07:48.039Z,17.4
2017-06-26T01:08:07.349Z,17.47
2017-06-26T01:08:26.138Z,17.47
2017-06-26T01:08:45.449Z,17.48
2017-06-26T01:09:04.855Z,17.5
2017-06-26T01:09:24.137Z,17.51
2017-06-26T01:09:43.468Z,17.54
2017-06-26T01:10:02.243Z,17.53
2017-06-26T01:10:21.015Z,17.46
2017-06-26T01:10:40.306Z,17.53
2017-06-26T01:10:59.590Z,17.54
2017-06-26T01:11:18.904Z,17.58
2017-06-26T01:11:38.249Z,17.58
2017-06-26T01:11:56.524Z,17.57
2017-06-26T01:12:15.806Z,17.5
2017-06-26T01:12:35.107Z,17.51
2017-06-26T01:12:54.393Z,17.55
2017-06-26T01:13:13.196Z,17.53
2017-06-26T01:13:32.506Z,17.51
2017-06-26T01:13:51.836Z,17.48
2017-06-26T01:14:11.145Z,17.51
2017-06-26T01:14:30.450Z,17.54
2017-06-26T01:14:49.789Z,17.57
2017-06-26T01:15:08.561Z,17.57
2017-06-26T01:15:27.347Z,17.58
2017-06-26T01:15:46.646Z,17.66
2017-06-26T01:16:05.937Z,17.64
2017-06-26T01:16:25.242Z,17.66
2017-06-26T01:16:44.535Z,17.6
2017-06-26T01:17:03.825Z,17.69
2017-06-26T01:17:22.121Z,17.58
2017-06-26T01:17:41.443Z,17.69
2017-06-26T01:18:00.715Z,17.7
2017-06-26T01:18:19.502Z,17.6
2017-06-26T01:18:38.790Z,17.6
2017-06-26T01:18:58.084Z,17.58
2017-06-26T01:19:16.904Z,17.55
2017-06-26T01:19:36.203Z,17.63
2017-06-26T01:19:55.520Z,17.6
2017-06-26T01:20:13.276Z,17.53
2017-06-26T01:20:32.580Z,17.54
2017-06-26T01:20:51.404Z,17.46
2017-06-26T01:21:10.698Z,17.48
2017-06-26T01:21:29.972Z,17.38
2017-06-26T01:21:49.266Z,17.38
2017-06-26T01:22:08.581Z,17.36
2017-06-26T01:22:27.894Z,17.38
2017-06-26T01:22:46.670Z,17.36
2017-06-26T01:23:05.971Z,17.26
2017-06-26T01:23:25.318Z,17.4
2017-06-26T01:23:44.633Z,17.4
2017-06-26T01:24:03.953Z,17.48
2017-06-26T01:24:23.284Z,17.36
2017-06-26T01:24:42.627Z,17.35
2017-06-26T01:25:01.930Z,17.35
2017-06-26T01:25:20.740Z,17.33
2017-06-26T01:25:40.050Z,17.48
2017-06-26T01:25:58.813Z,17.54
2017-06-26T01:26:17.574Z,17.48
2017-06-26T01:26:36.884Z,17.48
2017-06-26T01:26:56.194Z,17.48
2017-06-26T01:27:15.483Z,17.4
2017-06-26T01:27:34.799Z,17.5
2017-06-26T01:27:54.127Z,17.53
2017-06-26T01:28:13.432Z,17.46
2017-06-26T01:28:32.706Z,17.51
2017-06-26T01:28:52.013Z,17.53
2017-06-26T01:29:11.310Z,17.48
2017-06-26T01:29:30.597Z,17.54
2017-06-26T01:29:49.892Z,17.6
2017-06-26T01:30:09.195Z,17.57
2017-06-26T01:30:28.528Z,17.63
2017-06-26T01:30:47.829Z,17.63
2017-06-26T01:31:07.146Z,17.48
2017-06-26T01:31:26.493Z,17.48
2017-06-26T01:31:45.809Z,17.36
2017-06-26T01:32:05.090Z,17.38
2017-06-26T01:32:23.896Z,17.48
2017-06-26T01:32:43.194Z,17.36
2017-06-26T01:33:02.469Z,17.4
2017-06-26T01:33:21.763Z,17.29
2017-06-26T01:33:41.050Z,17.46
2017-06-26T01:34:00.357Z,17.33
2017-06-26T01:34:19.666Z,17.28
2017-06-26T01:34:39.007Z,17.33
2017-06-26T01:34:58.338Z,17.32
2017-06-26T01:35:17.676Z,17.38
2017-06-26T01:35:36.968Z,17.36
2017-06-26T01:35:56.259Z,17.21
2017-06-26T01:36:15.587Z,17.33
2017-06-26T01:36:34.407Z,17.33
2017-06-26T01:36:53.700Z,17.33
2017-06-26T01:37:12.478Z,17.35
2017-06-26T01:37:31.764Z,17.36
2017-06-26T01:37:51.071Z,17.35
2017-06-26T01:38:09.875Z,17.35
2017-06-26T01:38:28.690Z,17.38
2017-06-26T01:38:47.968Z,17.46
2017-06-26T01:39:07.257Z,17.38
2017-06-26T01:39:26.566Z,17.44
2017-06-26T01:39:45.861Z,17.48
2017-06-26T01:40:04.644Z,17.48
2017-06-26T01:40:23.962Z,17.43
2017-06-26T01:40:43.257Z,17.51
2017-06-26T01:41:02.580Z,17.33
2017-06-26T01:41:21.896Z,17.39
2017-06-26T01:41:41.208Z,17.35
2017-06-26T01:42:00.502Z,17.35
2017-06-26T01:42:19.843Z,17.35
2017-06-26T01:42:39.166Z,17.36
2017-06-26T01:42:58.480Z,17.29
2017-06-26T01:43:17.269Z,17.35
2017-06-26T01:43:36.587Z,17.26
2017-06-26T01:43:55.896Z,17.29
2017-06-26T01:44:15.201Z,17.36
2017-06-26T01:44:34.001Z,17.29
2017-06-26T01:44:53.346Z,17.32
2017-06-26T01:45:12.671Z,17.33
2017-06-26T01:45:31.454Z,17.38
2017-06-26T01:45:50.265Z,17.32
2017-06-26T01:46:09.575Z,17.28
2017-06-26T01:46:28.855Z,17.38
2017-06-26T01:46:48.160Z,17.29
2017-06-26T01:47:07.471Z,17.32
2017-06-26T01:47:26.792Z,17.32
2017-06-26T01:47:46.089Z,17.25
2017-06-26T01:48:05.367Z,17.26
2017-06-26T01:48:24.146Z,17.33
2017-06-26T01:48:43.455Z,17.32
2017-06-26T01:49:02.765Z,17.26
2017-06-26T01:49:22.079Z,17.2
2017-06-26T01:49:41.367Z,17.25
2017-06-26T01:50:00.703Z,17.23
2017-06-26T01:50:19.989Z,17.28
2017-06-26T01:50:39.285Z,17.18
2017-06-26T01:50:58.562Z,17.21
2017-06-26T01:51:17.374Z,17.15
2017-06-26T01:51:36.675Z,17.05
2017-06-26T01:51:55.984Z,17.08
2017-06-26T01:52:15.291Z,17.11
2017-06-26T01:52:34.595Z,17.17
2017-06-26T01:52:53.887Z,17.21
2017-06-26T01:53:13.171Z,17.14
2017-06-26T01:53:32.462Z,17.15
2017-06-26T01:53:51.739Z,17.07
2017-06-26T01:54:11.029Z,17.02
2017-06-26T01:54:30.311Z,17.05
2017-06-26T01:54:49.610Z,17.03
2017-06-26T01:55:08.430Z,17.15
2017-06-26T01:55:26.699Z,17.14
2017-06-26T01:55:46.016Z,17.14
2017-06-26T01:56:05.295Z,17.1
2017-06-26T01:56:24.615Z,17.18
2017-06-26T01:56:43.945Z,17.13
2017-06-26T01:57:03.261Z,17.14
2017-06-26T01:57:22.581Z,17.13
2017-06-26T01:57:41.368Z,17.1
2017-06-26T01:58:00.683Z,17.03
2017-06-26T01:58:19.983Z,17.08
2017-06-26T01:58:38.781Z,17.13
2017-06-26T01:58:58.081Z,17.1
2017-06-26T01:59:17.396Z,17.05
2017-06-26T01:59:36.703Z,17.18
2017-06-26T01:59:55.976Z,17.13
2017-06-26T02:00:15.315Z,17.05
2017-06-26T02:00:34.618Z,17.13
2017-06-26T02:00:53.424Z,16.99
2017-06-26T02:01:12.713Z,17.03
2017-06-26T02:01:32.025Z,17.05
2017-06-26T02:01:51.355Z,17.1
2017-06-26T02:02:10.672Z,17.03
2017-06-26T02:02:29.446Z,17.11
2017-06-26T02:02:48.732Z,17.08
2017-06-26T02:03:08.042Z,16.99
2017-06-26T02:03:41.336Z,17.03
2017-06-26T02:04:00.678Z,17.05
2017-06-26T02:04:19.969Z,17.03
2017-06-26T02:04:38.770Z,17.05
2017-06-26T02:04:58.087Z,17.05
2017-06-26T02:05:17.393Z,16.99
2017-06-26T02:05:36.681Z,16.96
2017-06-26T02:05:55.972Z,16.93
2017-06-26T02:06:15.307Z,16.95
2017-06-26T02:06:34.613Z,16.96
2017-06-26T02:06:53.889Z,16.99
2017-06-26T02:07:13.196Z,16.99
2017-06-26T02:07:31.998Z,16.98
2017-06-26T02:07:50.817Z,16.95
2017-06-26T02:08:10.136Z,16.95
2017-06-26T02:08:28.938Z,17.02
2017-06-26T02:08:47.706Z,16.9
2017-06-26T02:09:06.994Z,16.95
2017-06-26T02:09:25.759Z,16.9
2017-06-26T02:09:44.523Z,16.96
2017-06-26T02:10:03.822Z,16.96
2017-06-26T02:10:22.606Z,16.95
2017-06-26T02:10:41.915Z,16.93
2017-06-26T02:11:01.228Z,17.07
2017-06-26T02:11:20.545Z,16.99
2017-06-26T02:11:39.845Z,16.95
2017-06-26T02:11:59.176Z,16.95
2017-06-26T02:12:18.013Z,17.07
2017-06-26T02:12:37.325Z,17.07
2017-06-26T02:12:56.623Z,17.13
2017-06-26T02:13:14.887Z,17.1
2017-06-26T02:13:34.203Z,17.02
2017-06-26T02:13:53.513Z,17.05
2017-06-26T02:14:12.816Z,17.03
2017-06-26T02:14:32.116Z,17.03
2017-06-26T02:14:51.443Z,17.07
2017-06-26T02:15:10.257Z,16.98
2017-06-26T02:15:29.022Z,16.95
2017-06-26T02:15:48.311Z,16.98
2017-06-26T02:16:07.594Z,17
2017-06-26T02:16:26.896Z,16.93
2017-06-26T02:16:46.209Z,16.99
2017-06-26T02:17:05.492Z,16.99
2017-06-26T02:17:24.777Z,16.98
2017-06-26T02:17:44.075Z,16.95
2017-06-26T02:18:02.875Z,16.92
2017-06-26T02:18:22.161Z,16.85
2017-06-26T02:18:41.478Z,16.82
2017-06-26T02:19:00.775Z,16.8
2017-06-26T02:19:19.553Z,16.77
2017-06-26T02:19:38.345Z,16.75
2017-06-26T02:19:57.651Z,16.75
2017-06-26T02:20:15.416Z,16.74
2017-06-26T02:20:34.706Z,16.81
2017-06-26T02:20:53.997Z,16.8
2017-06-26T02:21:13.311Z,16.67
2017-06-26T02:21:32.611Z,16.74
2017-06-26T02:21:51.938Z,16.74
2017-06-26T02:22:11.226Z,16.74
2017-06-26T02:22:30.521Z,16.6
2017-06-26T02:22:49.817Z,16.57
2017-06-26T02:23:09.108Z,16.6
2017-06-26T02:23:27.942Z,16.57
2017-06-26T02:23:47.261Z,16.55
2017-06-26T02:24:06.554Z,16.57
2017-06-26T02:24:25.821Z,16.52
2017-06-26T02:24:45.104Z,16.59
2017-06-26T02:25:04.419Z,16.59
2017-06-26T02:25:23.705Z,16.62
2017-06-26T02:25:43.006Z,16.55
2017-06-26T02:26:02.320Z,16.63
2017-06-26T02:26:21.617Z,16.57
2017-06-26T02:26:40.900Z,16.62
2017-06-26T02:26:59.664Z,16.53
2017-06-26T02:27:18.952Z,16.55
2017-06-26T02:27:38.251Z,16.5
2017-06-26T02:27:57.552Z,16.55
2017-06-26T02:28:15.852Z,16.55
2017-06-26T02:28:34.623Z,16.47
2017-06-26T02:28:53.924Z,16.55
2017-06-26T02:29:13.227Z,16.47
2017-06-26T02:29:32.017Z,16.57
2017-06-26T02:29:51.329Z,16.5
2017-06-26T02:30:10.109Z,16.45
2017-06-26T02:30:28.888Z,16.53
2017-06-26T02:30:48.196Z,16.41
2017-06-26T02:31:07.515Z,16.48
2017-06-26T02:31:26.829Z,16.5
2017-06-26T02:31:46.155Z,16.47
2017-06-26T02:32:05.450Z,16.45
2017-06-26T02:32:24.776Z,16.37
2017-06-26T02:32:44.076Z,16.33
2017-06-26T02:33:02.854Z,16.34
2017-06-26T02:33:22.185Z,16.27
2017-06-26T02:33:40.979Z,16.26
2017-06-26T02:33:59.746Z,16.34
2017-06-26T02:34:19.038Z,16.26
2017-06-26T02:34:37.818Z,16.34
2017-06-26T02:34:57.187Z,16.29
2017-06-26T02:35:15.958Z,16.37
2017-06-26T02:35:35.269Z,16.33
2017-06-26T02:35:54.561Z,16.29
2017-06-26T02:36:13.885Z,16.25
2017-06-26T02:36:33.177Z,16.38
2017-06-26T02:36:52.498Z,16.34
2017-06-26T02:37:11.781Z,16.33
2017-06-26T02:37:31.106Z,16.3
2017-06-26T02:37:50.423Z,16.37
2017-06-26T02:38:09.736Z,16.3
2017-06-26T02:38:28.514Z,16.27
2017-06-26T02:38:47.825Z,16.25
2017-06-26T02:39:06.625Z,16.3
2017-06-26T02:39:25.420Z,16.27
2017-06-26T02:39:44.726Z,16.27
2017-06-26T02:40:04.024Z,16.27
2017-06-26T02:40:22.834Z,16.26
2017-06-26T02:40:42.163Z,16.29
2017-06-26T02:41:01.481Z,16.25
2017-06-26T02:41:20.785Z,16.23
2017-06-26T02:41:40.095Z,16.25
2017-06-26T02:41:59.406Z,16.25
2017-06-26T02:42:18.207Z,16.18
2017-06-26T02:42:37.506Z,16.25
2017-06-26T02:42:56.819Z,16.29
2017-06-26T02:43:15.615Z,16.27
2017-06-26T02:43:34.926Z,16.25
2017-06-26T02:43:54.266Z,16.2
2017-06-26T02:44:12.549Z,16.26
2017-06-26T02:44:31.869Z,16.26
2017-06-26T02:44:51.169Z,16.15
2017-06-26T02:45:09.430Z,16.18
2017-06-26T02:45:28.197Z,16.22
2017-06-26T02:45:47.483Z,16.29
2017-06-26T02:46:06.766Z,16.25
2017-06-26T02:46:25.564Z,16.25
2017-06-26T02:46:44.869Z,16.29
2017-06-26T02:47:04.168Z,16.3
2017-06-26T02:47:22.942Z,16.18
2017-06-26T02:47:41.746Z,16.33
2017-06-26T02:48:01.031Z,16.26
2017-06-26T02:48:19.800Z,16.23
2017-06-26T02:48:39.085Z,16.26
2017-06-26T02:48:57.890Z,16.23
2017-06-26T02:49:17.196Z,16.25
2017-06-26T02:49:36.503Z,16.34
2017-06-26T02:49:55.790Z,16.3
2017-06-26T02:50:14.582Z,16.15
2017-06-26T02:50:33.872Z,16.22
2017-06-26T02:50:52.658Z,16.14
2017-06-26T02:51:11.479Z,16.16
2017-06-26T02:51:30.242Z,16.18
2017-06-26T02:51:49.525Z,16.18
2017-06-26T02:52:08.303Z,16.2
2017-06-26T02:52:27.600Z,16.08
2017-06-26T02:52:46.918Z,16.12
2017-06-26T02:53:06.246Z,16.2
2017-06-26T02:53:25.540Z,16.16
2017-06-26T02:53:44.835Z,16.22
2017-06-26T02:54:04.141Z,16.2
2017-06-26T02:54:22.908Z,16.16
2017-06-26T02:54:41.683Z,16.12
2017-06-26T02:55:01.014Z,16.08
2017-06-26T02:55:20.299Z,16.07
2017-06-26T02:55:39.614Z,16.18
2017-06-26T02:55:58.895Z,16.15
2017-06-26T02:56:18.235Z,16
2017-06-26T02:56:37.533Z,16.16
2017-06-26T02:56:56.871Z,16.03
2017-06-26T02:57:16.170Z,16.07
2017-06-26T02:57:35.477Z,15.97
2017-06-26T02:57:54.771Z,16.06
2017-06-26T02:58:14.088Z,16.03
2017-06-26T02:58:33.414Z,15.96
2017-06-26T02:58:52.716Z,16
2017-06-26T02:59:12.016Z,16
2017-06-26T02:59:30.847Z,16.04
2017-06-26T02:59:50.180Z,16.01
2017-06-26T03:00:08.981Z,16
2017-06-26T03:00:28.285Z,15.94
2017-06-26T03:00:47.577Z,16
2017-06-26T03:01:06.362Z,15.99
2017-06-26T03:01:25.667Z,16.06
2017-06-26T03:01:44.979Z,16.03
2017-06-26T03:02:04.279Z,16
2017-06-26T03:02:23.562Z,15.97
2017-06-26T03:02:42.361Z,16.03
2017-06-26T03:03:01.666Z,15.96
2017-06-26T03:03:20.958Z,15.99
2017-06-26T03:03:39.744Z,16.01
2017-06-26T03:03:58.519Z,16.06
2017-06-26T03:04:16.779Z,16.01
2017-06-26T03:04:35.580Z,15.99
2017-06-26T03:04:53.886Z,15.97
2017-06-26T03:05:12.684Z,15.99
2017-06-26T03:05:31.975Z,15.96
2017-06-26T03:05:51.278Z,15.97
2017-06-26T03:06:10.063Z,16.01
2017-06-26T03:06:28.834Z,15.94
2017-06-26T03:06:48.130Z,15.91
2017-06-26T03:07:07.445Z,15.96
2017-06-26T03:07:26.232Z,16
2017-06-26T03:07:45.527Z,15.96
2017-06-26T03:08:04.824Z,15.92
2017-06-26T03:08:24.162Z,15.91
2017-06-26T03:08:42.936Z,15.83
2017-06-26T03:09:02.222Z,15.85
2017-06-26T03:09:21.534Z,15.94
2017-06-26T03:09:40.807Z,15.96
2017-06-26T03:10:00.116Z,15.96
2017-06-26T03:10:19.432Z,16
2017-06-26T03:10:38.714Z,15.94
2017-06-26T03:10:58.009Z,15.85
2017-06-26T03:11:17.329Z,15.96
2017-06-26T03:11:36.655Z,15.91
2017-06-26T03:11:55.995Z,15.96
2017-06-26T03:12:15.293Z,15.86
2017-06-26T03:12:34.575Z,15.85
2017-06-26T03:12:53.856Z,15.88
2017-06-26T03:13:12.628Z,15.85
2017-06-26T03:13:31.925Z,15.94
2017-06-26T03:13:51.239Z,15.85
2017-06-26T03:14:10.046Z,15.86
2017-06-26T03:14:29.351Z,15.91
2017-06-26T03:14:48.678Z,15.76
2017-06-26T03:15:06.925Z,15.86
2017-06-26T03:15:25.743Z,15.83
2017-06-26T03:15:45.023Z,15.81
2017-06-26T03:16:04.310Z,15.89
2017-06-26T03:16:23.592Z,15.88
2017-06-26T03:16:42.880Z,15.81
2017-06-26T03:17:02.187Z,15.78
2017-06-26T03:17:21.504Z,15.78
2017-06-26T03:17:40.812Z,15.68
2017-06-26T03:18:00.102Z,15.7
2017-06-26T03:18:19.407Z,15.75
2017-06-26T03:18:38.723Z,15.73
2017-06-26T03:18:58.023Z,15.73
2017-06-26T03:19:16.284Z,15.76
2017-06-26T03:19:35.080Z,15.71
2017-06-26T03:19:54.401Z,15.68
2017-06-26T03:20:13.728Z,15.71
2017-06-26T03:20:33.026Z,15.61
2017-06-26T03:20:52.304Z,15.78
2017-06-26T03:21:11.607Z,15.75
2017-06-26T03:21:30.899Z,15.73
2017-06-26T03:21:50.216Z,15.71
2017-06-26T03:22:09.529Z,15.68
2017-06-26T03:22:28.874Z,15.64
2017-06-26T03:22:47.690Z,15.7
2017-06-26T03:23:06.972Z,15.71
2017-06-26T03:23:25.738Z,15.64
2017-06-26T03:23:44.501Z,15.66
2017-06-26T03:24:03.805Z,15.59
2017-06-26T03:24:23.107Z,15.71
2017-06-26T03:24:41.907Z,15.67
2017-06-26T03:25:00.694Z,15.68
2017-06-26T03:25:19.509Z,15.66
2017-06-26T03:25:37.767Z,15.67
2017-06-26T03:25:57.065Z,15.59
2017-06-26T03:26:16.374Z,15.66
2017-06-26T03:26:35.668Z,15.73
2017-06-26T03:26:55.004Z,15.68
2017-06-26T03:27:14.318Z,15.64
2017-06-26T03:27:33.621Z,15.68
2017-06-26T03:27:52.975Z,15.68
2017-06-26T03:28:11.779Z,15.7
2017-06-26T03:28:31.096Z,15.64
2017-06-26T03:28:50.398Z,15.67
2017-06-26T03:29:09.717Z,15.63
2017-06-26T03:29:29.012Z,15.67
2017-06-26T03:29:48.307Z,15.79
2017-06-26T03:30:07.073Z,15.61
2017-06-26T03:30:25.852Z,15.78
2017-06-26T03:30:44.648Z,15.76
2017-06-26T03:31:03.926Z,15.64
2017-06-26T03:31:23.213Z,15.73
2017-06-26T03:31:42.538Z,15.73
2017-06-26T03:32:01.309Z,15.63
2017-06-26T03:32:20.629Z,15.57
2017-06-26T03:32:39.945Z,15.71
2017-06-26T03:32:59.237Z,15.79
2017-06-26T03:33:18.529Z,15.73
2017-06-26T03:33:37.830Z,15.75
2017-06-26T03:33:57.119Z,15.67
2017-06-26T03:34:15.929Z,15.75
2017-06-26T03:34:35.234Z,15.81
2017-06-26T03:34:54.533Z,15.7
2017-06-26T03:35:13.818Z,15.64
2017-06-26T03:35:32.595Z,15.71
2017-06-26T03:35:51.942Z,15.68
2017-06-26T03:36:11.245Z,15.71
2017-06-26T03:36:30.556Z,15.63
2017-06-26T03:36:49.324Z,15.71
2017-06-26T03:37:08.109Z,15.71
2017-06-26T03:37:26.886Z,15.67
2017-06-26T03:37:45.680Z,15.63
2017-06-26T03:38:04.997Z,15.73
2017-06-26T03:38:24.303Z,15.61
2017-06-26T03:38:43.611Z,15.73
2017-06-26T03:39:02.923Z,15.73
2017-06-26T03:39:21.710Z,15.71
2017-06-26T03:39:41.014Z,15.61
2017-06-26T03:40:00.318Z,15.67
2017-06-26T03:40:19.636Z,15.55
2017-06-26T03:40:38.947Z,15.59
2017-06-26T03:40:58.252Z,15.52
2017-06-26T03:41:17.588Z,15.6
2017-06-26T03:41:36.387Z,15.61
2017-06-26T03:41:55.160Z,15.57
2017-06-26T03:42:14.469Z,15.61
2017-06-26T03:42:33.759Z,15.57
2017-06-26T03:42:52.524Z,15.6
2017-06-26T03:43:11.841Z,15.45
2017-06-26T03:43:31.133Z,15.53
2017-06-26T03:43:50.460Z,15.48
2017-06-26T03:44:09.778Z,15.48
2017-06-26T03:44:29.063Z,15.51
2017-06-26T03:44:48.358Z,15.45
2017-06-26T03:45:07.672Z,15.46
2017-06-26T03:45:26.965Z,15.42
2017-06-26T03:45:45.211Z,15.45
2017-06-26T03:46:04.510Z,15.43
2017-06-26T03:46:23.793Z,15.49
2017-06-26T03:46:43.100Z,15.49
2017-06-26T03:47:02.407Z,15.51
2017-06-26T03:47:21.729Z,15.43
2017-06-26T03:47:41.029Z,15.39
2017-06-26T03:48:00.328Z,15.49
2017-06-26T03:48:19.658Z,15.39
2017-06-26T03:48:38.459Z,15.43
2017-06-26T03:48:57.753Z,15.45
2017-06-26T03:49:17.033Z,15.51
2017-06-26T03:49:35.814Z,15.45
2017-06-26T03:49:55.099Z,15.39
2017-06-26T03:50:14.393Z,15.43
2017-06-26T03:50:33.210Z,15.45
2017-06-26T03:50:52.508Z,15.46
2017-06-26T03:51:11.838Z,15.46
2017-06-26T03:51:31.142Z,15.43
2017-06-26T03:51:50.435Z,15.46
2017-06-26T03:52:09.726Z,15.52
2017-06-26T03:52:29.052Z,15.48
2017-06-26T03:52:48.366Z,15.49
2017-06-26T03:53:07.660Z,15.49
2017-06-26T03:53:26.979Z,15.48
2017-06-26T03:53:46.269Z,15.55
2017-06-26T03:54:05.591Z,15.48
2017-06-26T03:54:24.884Z,15.45
2017-06-26T03:54:44.183Z,15.53
2017-06-26T03:55:03.494Z,15.43
2017-06-26T03:55:22.800Z,15.41
2017-06-26T03:55:41.600Z,15.43
2017-06-26T03:56:00.910Z,15.51
2017-06-26T03:56:19.718Z,15.39
2017-06-26T03:56:39.019Z,15.45
2017-06-26T03:56:58.331Z,15.41
2017-06-26T03:57:17.647Z,15.49
2017-06-26T03:57:36.432Z,15.45
2017-06-26T03:57:55.728Z,15.45
2017-06-26T03:58:14.513Z,15.45
2017-06-26T03:58:33.806Z,15.45
2017-06-26T03:58:53.110Z,15.41
2017-06-26T03:59:12.410Z,15.41
2017-06-26T03:59:31.720Z,15.41
2017-06-26T03:59:51.027Z,15.43
2017-06-26T04:00:10.338Z,15.48
2017-06-26T04:00:29.652Z,15.48
2017-06-26T04:00:48.973Z,15.43
2017-06-26T04:01:08.282Z,15.48
2017-06-26T04:01:27.103Z,15.42
2017-06-26T04:01:45.897Z,15.41
2017-06-26T04:02:05.215Z,15.35
2017-06-26T04:02:24.506Z,15.35
2017-06-26T04:02:43.813Z,15.41
2017-06-26T04:03:03.109Z,15.41
2017-06-26T04:03:21.882Z,15.35
2017-06-26T04:03:41.187Z,15.42
2017-06-26T04:03:59.960Z,15.42
2017-06-26T04:04:18.777Z,15.31
2017-06-26T04:04:38.058Z,15.3
2017-06-26T04:04:57.379Z,15.38
2017-06-26T04:05:16.710Z,15.43
2017-06-26T04:05:35.501Z,15.34
2017-06-26T04:05:54.281Z,15.46
2017-06-26T04:06:12.567Z,15.41
2017-06-26T04:06:31.874Z,15.34
2017-06-26T04:06:51.193Z,15.42
2017-06-26T04:07:09.971Z,15.43
2017-06-26T04:07:29.290Z,15.3
2017-06-26T04:07:48.587Z,15.38
2017-06-26T04:08:07.914Z,15.39